Time;durP1;ratioP1;P1;durP2;ratioP2;P2;SDS_P1;SDS_P2;PMS_P1;PMS_P2;Temp;Humidity;BMP_temperature;BMP_pressure;BME280_temperature;BME280_humidity;BME280_pressure;Samples;Min_cycle;Max_cycle;Signal;HPM_P1;HPM_P2
2023/03/19 00:01:13;;;;;;;102.47;18.92;;;;;;;9.41;100.00;100469.69;10455530;28;20048;-86
2023/03/19 00:06:14;;;;;;;120.53;44.53;;;;;;;9.25;100.00;100427.19;10454842;28;20518;-86
2023/03/19 00:11:15;;;;;;;94.00;21.10;;;;;;;9.31;100.00;100426.56;10455142;28;20527;-86
2023/03/19 00:16:15;;;;;;;88.43;17.77;;;;;;;9.36;100.00;100434.84;10445883;28;20046;-86
2023/03/19 00:21:16;;;;;;;66.80;13.70;;;;;;;9.19;100.00;100415.38;10413034;28;20515;-87
2023/03/19 00:26:17;;;;;;;61.20;14.05;;;;;;;9.56;100.00;100475.22;10413536;28;20045;-86
2023/03/19 00:31:18;;;;;;;72.18;13.50;;;;;;;9.37;100.00;100431.22;10412904;28;20049;-84
2023/03/19 00:36:19;;;;;;;66.65;11.80;;;;;;;9.57;100.00;100467.13;10412438;28;20061;-84
2023/03/19 00:41:20;;;;;;;64.45;13.68;;;;;;;9.00;100.00;100384.63;10413049;28;20052;-86
2023/03/19 00:46:22;;;;;;;56.38;12.50;;;;;;;9.05;100.00;100387.63;10413049;28;20091;-86
2023/03/19 00:51:24;;;;;;;62.85;13.63;;;;;;;9.37;100.00;100428.56;10412710;28;20053;-85
2023/03/19 00:56:25;;;;;;;83.18;16.08;;;;;;;9.64;100.00;100463.84;10411202;28;20069;-85
2023/03/19 01:01:25;;;;;;;89.13;13.75;;;;;;;9.76;100.00;100479.31;10412448;28;20477;-86
2023/03/19 01:06:26;;;;;;;91.00;14.57;;;;;;;9.50;100.00;100444.88;10412519;28;20550;-86
2023/03/19 01:11:27;;;;;;;96.25;13.70;;;;;;;9.60;100.00;100468.59;10412139;28;20037;-86
2023/03/19 01:16:28;;;;;;;110.57;15.82;;;;;;;9.09;100.00;100385.50;10415657;28;20042;-85
2023/03/19 01:21:32;;;;;;;98.80;13.75;;;;;;;9.46;100.00;100450.66;10420053;28;20033;-86
2023/03/19 01:26:33;;;;;;;;;;;;;;;9.70;100.00;100471.16;10420573;28;20053;-86
2023/03/19 01:31:36;;;;;;;77.50;12.18;;;;;;;9.36;100.00;100448.09;10420059;28;19913;-86
2023/03/19 01:36:37;;;;;;;87.63;12.93;;;;;;;9.56;100.00;100477.88;10419814;28;20504;-86
2023/03/19 01:41:37;;;;;;;75.95;13.63;;;;;;;9.57;100.00;100484.84;10419207;28;20049;-85
2023/03/19 01:46:39;;;;;;;86.95;12.25;;;;;;;9.08;100.00;100413.81;10419665;28;20493;-85
2023/03/19 01:51:44;;;;;;;80.65;10.95;;;;;;;9.45;100.00;100476.31;10418541;28;20052;-85
2023/03/19 01:56:50;;;;;;;101.38;13.40;;;;;;;9.30;100.00;100456.69;10419044;28;20439;-85
2023/03/19 02:01:56;;;;;;;87.78;11.73;;;;;;;9.06;100.00;100417.63;10418935;28;20044;-84
2023/03/19 02:07:00;;;;;;;74.90;11.68;;;;;;;9.15;100.00;100429.91;10418892;28;20040;-85
2023/03/19 02:12:01;;;;;;;91.38;12.93;;;;;;;9.09;100.00;100438.50;10418240;28;20033;-85
2023/03/19 02:17:01;;;;;;;77.47;12.00;;;;;;;9.32;100.00;100478.56;10417664;28;20050;-84
2023/03/19 02:22:03;;;;;;;98.13;12.65;;;;;;;8.42;100.00;100340.22;10418141;28;20048;-85
2023/03/19 02:27:08;;;;;;;76.70;12.20;;;;;;;9.07;100.00;100467.81;10417638;28;20128;-84
2023/03/19 02:32:08;;;;;;;90.82;14.50;;;;;;;9.13;100.00;100471.69;10417490;28;20057;-83
2023/03/19 02:37:18;;;;;;;85.95;14.25;;;;;;;9.25;100.00;100486.31;10416831;28;20096;-85
2023/03/19 02:42:21;;;;;;;101.20;21.00;;;;;;;9.02;100.00;100448.91;10417870;28;20448;-85
2023/03/19 02:47:23;;;;;;;109.57;30.55;;;;;;;9.26;100.00;100485.34;10417635;28;20508;-84
2023/03/19 02:52:25;;;;;;;108.60;17.15;;;;;;;8.94;100.00;100440.88;10416848;28;20424;-84
2023/03/19 02:57:26;;;;;;;83.53;14.73;;;;;;;9.24;100.00;100482.00;10416919;28;20045;-83
2023/03/19 03:02:27;;;;;;;82.57;15.15;;;;;;;9.16;100.00;100479.31;10416611;28;20045;-84
2023/03/19 03:07:28;;;;;;;71.80;11.30;;;;;;;9.11;100.00;100485.06;10416765;28;20546;-84
2023/03/19 03:12:28;;;;;;;82.93;12.45;;;;;;;8.87;100.00;100467.16;10415680;28;20132;-83
2023/03/19 03:17:29;;;;;;;64.95;11.30;;;;;;;9.04;100.00;100488.50;10414240;28;20037;-83
2023/03/19 03:22:31;;;;;;;68.25;9.80;;;;;;;8.89;100.00;100459.09;10415568;28;20728;-84
2023/03/19 03:27:32;;;;;;;68.03;10.95;;;;;;;8.91;100.00;100451.78;10415072;28;20103;-84
2023/03/19 03:32:34;;;;;;;66.05;10.48;;;;;;;9.17;100.00;100480.13;10427512;28;20079;-84
2023/03/19 03:37:36;;;;;;;62.53;10.77;;;;;;;8.40;100.00;100364.19;10431042;28;20064;-84
2023/03/19 03:42:36;;;;;;;64.63;9.40;;;;;;;9.00;100.00;100452.69;10437508;28;20063;-84
2023/03/19 03:47:38;;;;;;;71.05;11.68;;;;;;;9.24;100.00;100483.81;10439317;28;20071;-84
2023/03/19 03:52:39;;;;;;;87.85;12.23;;;;;;;9.24;100.00;100484.66;10436131;28;20033;-86
2023/03/19 03:57:40;;;;;;;60.67;9.80;;;;;;;9.24;100.00;100462.63;10439538;28;20071;-85
2023/03/19 04:02:41;;;;;;;70.20;11.15;;;;;;;9.48;100.00;100502.56;10437802;28;20068;-83
2023/03/19 04:07:42;;;;;;;74.07;11.13;;;;;;;9.62;100.00;100509.06;10448865;28;20060;-85
2023/03/19 04:12:44;;;;;;;57.58;11.20;;;;;;;9.59;100.00;100494.31;10445741;28;20049;-86
2023/03/19 04:17:46;;;;;;;68.43;10.75;;;;;;;9.38;100.00;100467.34;10431454;28;20123;-85
2023/03/19 04:22:46;;;;;;;60.92;9.55;;;;;;;9.68;100.00;100502.31;10418833;28;20052;-85
2023/03/19 04:27:47;;;;;;;62.78;10.25;;;;;;;9.82;100.00;100521.13;10413491;28;20033;-86
2023/03/19 04:32:48;;;;;;;59.20;9.43;;;;;;;9.73;100.00;100484.09;10413489;28;20056;-85
2023/03/19 04:37:48;;;;;;;55.55;9.43;;;;;;;9.71;100.00;100460.38;10413049;28;20045;-84
2023/03/19 04:42:49;;;;;;;78.15;10.93;;;;;;;10.05;100.00;100525.84;10412919;28;20132;-84
2023/03/19 04:47:50;;;;;;;53.47;9.75;;;;;;;10.07;100.00;100532.66;10413511;28;20072;-84
2023/03/19 04:52:51;;;;;;;55.95;9.60;;;;;;;9.93;100.00;100504.09;10419735;28;20099;-84
2023/03/19 04:57:51;;;;;;;55.63;10.38;;;;;;;10.03;100.00;100514.56;10420686;28;20116;-83
2023/03/19 05:02:52;;;;;;;64.85;10.05;;;;;;;10.13;100.00;100544.47;10421718;28;20100;-83
2023/03/19 05:07:53;;;;;;;50.45;9.73;;;;;;;10.17;100.00;100537.00;10421226;28;20041;-84
2023/03/19 05:12:54;;;;;;;63.78;10.98;;;;;;;9.78;100.00;100479.13;10420078;28;20041;-82
2023/03/19 05:17:55;;;;;;;57.97;9.02;;;;;;;9.98;100.00;100514.22;10421154;28;20045;-83
2023/03/19 05:22:56;;;;;;;63.63;9.95;;;;;;;10.12;100.00;100528.72;10420631;28;20046;-82
2023/03/19 05:27:57;;;;;;;65.72;10.70;;;;;;;10.21;100.00;100535.72;10421067;28;20044;-81
2023/03/19 05:32:58;;;;;;;61.40;10.02;;;;;;;9.77;100.00;100448.31;10421000;28;20045;-82
2023/03/19 05:37:59;;;;;;;78.47;19.20;;;;;;;10.47;100.00;100539.13;10419933;28;20042;-81
2023/03/19 05:43:00;;;;;;;62.83;11.27;;;;;;;10.52;100.00;100528.84;10426163;28;20045;-78
2023/03/19 05:48:02;;;;;;;67.07;10.90;;;;;;;10.52;100.00;100531.50;10442837;28;20040;-77
2023/03/19 05:53:03;;;;;;;71.82;10.48;;;;;;;10.65;100.00;100532.84;10460596;28;20393;-81
2023/03/19 05:58:04;;;;;;;63.20;10.80;;;;;;;10.79;100.00;100542.84;10459567;28;20041;-81
2023/03/19 06:03:05;;;;;;;64.07;11.32;;;;;;;10.49;100.00;100473.38;10458884;28;20045;-81
2023/03/19 06:08:06;;;;;;;59.60;10.60;;;;;;;10.95;100.00;100550.84;10459785;28;20131;-83
2023/03/19 06:13:06;;;;;;;70.50;12.00;;;;;;;10.95;100.00;100542.84;10459767;28;20048;-83
2023/03/19 06:18:07;;;;;;;57.28;11.68;;;;;;;10.90;100.00;100537.19;10458938;28;20036;-83
2023/03/19 06:23:08;;;;;;;60.42;12.23;;;;;;;10.63;100.00;100468.44;10459922;28;20044;-82
2023/03/19 06:28:09;;;;;;;65.10;12.23;;;;;;;10.59;100.00;100477.72;10458431;28;20032;-80
2023/03/19 06:33:10;;;;;;;50.90;11.52;;;;;;;10.89;100.00;100527.56;10449194;28;20433;-75
2023/03/19 06:38:11;;;;;;;59.08;11.50;;;;;;;11.16;100.00;100542.38;10441430;28;20063;-77
2023/03/19 06:43:11;;;;;;;66.80;12.35;;;;;;;11.19;100.00;100530.56;10427033;28;20115;-74
2023/03/19 06:48:12;;;;;;;51.72;10.70;;;;;;;11.25;100.00;100521.91;10389142;28;20104;-86
2023/03/19 06:53:13;;;;;;;54.70;10.60;;;;;;;11.15;100.00;100492.81;10388919;28;20092;-81
2023/03/19 06:58:14;;;;;;;58.20;11.65;;;;;;;11.42;100.00;100515.56;10416257;28;20505;-82
2023/03/19 07:03:15;;;;;;;71.22;11.18;;;;;;;11.43;100.00;100487.97;10416363;28;20041;-83
2023/03/19 07:08:16;;;;;;;47.88;8.95;;;;;;;11.24;100.00;100448.44;10415435;28;20044;-82
2023/03/19 07:13:16;;;;;;;58.03;9.82;;;;;;;11.92;100.00;100545.56;10415450;28;20136;-83
2023/03/19 07:18:17;;;;;;;76.85;10.00;;;;;;;11.91;100.00;100545.75;10415374;28;20560;-81
2023/03/19 07:23:18;;;;;;;59.63;10.90;;;;;;;11.40;100.00;100461.72;10415214;28;20501;-78
2023/03/19 07:28:19;;;;;;;62.42;10.18;;;;;;;11.95;100.00;100525.75;10413948;28;20037;-77
2023/03/19 07:33:21;;;;;;;65.85;10.65;;;;;;;11.67;100.00;100454.31;10415238;28;20053;-78
2023/03/19 07:38:21;;;;;;;67.55;10.70;;;;;;;11.89;100.00;100487.34;10415083;28;20041;-78
2023/03/19 07:43:22;;;;;;;58.63;12.55;;;;;;;12.09;100.00;100525.03;10404174;28;20080;-77
2023/03/19 07:48:23;;;;;;;87.55;12.18;;;;;;;11.66;100.00;100437.50;10399289;28;20050;-76
2023/03/19 07:53:24;;;;;;;82.68;12.70;;;;;;;11.74;100.00;100454.44;10380482;28;20041;-75
2023/03/19 07:58:25;;;;;;;67.50;13.07;;;;;;;11.86;100.00;100483.19;10408581;28;20037;-76
2023/03/19 08:03:26;;;;;;;61.38;10.90;;;;;;;12.17;100.00;100505.50;10388302;28;20493;-76
2023/03/19 08:08:27;;;;;;;79.95;18.02;;;;;;;12.56;100.00;100511.63;10425972;28;20081;-76
2023/03/19 08:13:28;;;;;;;87.07;16.60;;;;;;;12.65;100.00;100453.75;10396658;28;20046;-76
2023/03/19 08:18:29;;;;;;;71.20;14.93;;;;;;;13.20;100.00;100484.59;10404651;28;20162;-76
2023/03/19 08:23:30;;;;;;;78.72;15.48;;;;;;;13.57;100.00;100504.25;10397263;28;20128;-76
2023/03/19 08:28:31;;;;;;;72.00;13.63;;;;;;;13.35;100.00;100514.00;10413842;28;20049;-75
2023/03/19 08:33:31;;;;;;;87.43;13.18;;;;;;;12.87;100.00;100429.91;10406800;28;20506;-76
2023/03/19 08:38:34;;;;;;;78.60;13.70;;;;;;;12.85;100.00;100421.28;10398064;28;20476;-77
2023/03/19 08:43:36;;;;;;;91.70;14.52;;;;;;;13.66;100.00;100479.13;10407010;28;20041;-76
2023/03/19 08:48:37;;;;;;;79.20;13.20;;;;;;;13.65;100.00;100400.06;10413579;28;20045;-74
2023/03/19 08:53:37;;;;;;;82.75;13.68;;;;;;;14.13;100.00;100412.94;10409082;28;20049;-77
2023/03/19 08:58:40;;;;;;;82.82;13.38;;;;;;;14.04;99.03;100379.34;10382553;28;20070;-73
2023/03/19 09:03:42;;;;;;;83.60;15.55;;;;;;;14.64;99.44;100460.13;10379326;28;20045;-78
2023/03/19 09:08:43;;;;;;;76.65;13.40;;;;;;;14.83;99.09;100454.13;10404794;28;20038;-78
2023/03/19 09:13:44;;;;;;;71.70;11.95;;;;;;;14.82;98.30;100423.06;10393531;28;20501;-77
2023/03/19 09:18:45;;;;;;;79.00;12.98;;;;;;;14.83;97.26;100401.44;10411803;28;20049;-78
2023/03/19 09:23:46;;;;;;;88.43;13.02;;;;;;;15.13;97.28;100400.44;10405956;28;20042;-78
2023/03/19 09:28:46;;;;;;;83.50;13.48;;;;;;;15.15;96.27;100387.69;10371574;28;20044;-76
2023/03/19 09:33:47;;;;;;;81.20;13.00;;;;;;;15.24;95.44;100419.44;10375224;28;20061;-77
2023/03/19 09:38:48;;;;;;;69.90;11.88;;;;;;;15.49;94.79;100427.81;10417554;28;20095;-77
2023/03/19 09:44:28;;;;;;;74.43;12.10;;;;;;;15.28;92.46;100363.66;10388802;28;20042;-76
2023/03/19 09:49:32;;;;;;;84.90;13.70;;;;;;;15.13;91.80;100323.66;10380677;28;20509;-76
2023/03/19 09:54:43;;;;;;;72.82;13.52;;;;;;;15.50;90.48;100343.81;10418562;28;20083;-77
2023/03/19 09:59:45;;;;;;;81.30;13.48;;;;;;;15.84;90.69;100387.63;10419011;28;20052;-77
2023/03/19 10:05:04;;;;;;;72.95;12.23;;;;;;;16.03;88.61;100331.59;10419577;28;20045;-78
2023/03/19 10:10:26;;;;;;;66.38;12.07;;;;;;;16.76;88.12;100372.72;10382897;28;20505;-77
2023/03/19 10:15:31;;;;;;;73.07;11.05;;;;;;;16.88;87.04;100351.44;10410937;28;20044;-78
2023/03/19 10:20:37;;;;;;;79.40;12.65;;;;;;;16.96;86.67;100353.91;10411158;28;20099;-78
2023/03/19 10:25:41;;;;;;;61.72;11.52;;;;;;;16.91;84.76;100355.56;10416598;28;20558;-77
2023/03/19 10:30:47;;;;;;;;;;;;;;;17.05;86.76;100359.84;10376642;28;20134;-79
2023/03/19 10:36:03;;;;;;;65.30;11.95;;;;;;;16.65;82.87;100349.97;10377068;28;20282;-78
2023/03/19 10:41:43;;;;;;;70.95;12.10;;;;;;;16.24;81.93;100330.59;10376547;28;20056;-79
2023/03/19 10:46:43;;;;;;;74.97;11.55;;;;;;;15.60;85.14;100305.13;10376701;28;20041;-78
2023/03/19 10:51:45;;;;;;;65.28;11.50;;;;;;;15.35;85.17;100318.22;10375553;28;20041;-79
2023/03/19 10:56:47;;;;;;;63.47;12.38;;;;;;;14.93;85.88;100272.75;10376002;28;20400;-80
2023/03/19 11:01:48;;;;;;;113.40;33.58;;;;;;;15.41;86.15;100338.84;10382016;28;20045;-79
2023/03/19 11:06:53;;;;;;;74.68;20.83;;;;;;;15.34;86.73;100321.91;10415855;28;20135;-79
2023/03/19 11:12:04;;;;;;;122.00;33.20;;;;;;;15.56;84.97;100346.72;10448155;28;20039;-79
2023/03/19 11:17:28;;;;;;;85.15;17.85;;;;;;;15.71;82.96;100334.03;10384982;28;20084;-79
2023/03/19 11:22:32;;;;;;;85.25;14.55;;;;;;;15.61;83.12;100301.41;10375809;28;20042;-79
2023/03/19 11:27:34;;;;;;;;;;;;;;;15.96;81.43;100337.78;10375297;28;20054;-80
2023/03/19 11:32:40;;;;;;;74.22;12.18;;;;;;;15.67;83.33;100327.38;10374245;28;19949;-80
2023/03/19 11:37:54;;;;;;;79.60;15.27;;;;;;;15.38;82.27;100294.53;10375038;28;20144;-80
2023/03/19 11:43:30;;;;;;;88.18;22.58;;;;;;;15.65;82.67;100330.25;10374439;28;20049;-80
2023/03/19 11:48:39;;;;;;;137.77;47.47;;;;;;;15.73;83.98;100322.09;10365256;28;20128;-81
2023/03/19 11:53:43;;;;;;;648.60;445.08;;;;;;;15.77;82.34;100314.47;10373321;28;20046;-85
2023/03/19 11:58:57;;;;;;;357.55;152.63;;;;;;;15.82;81.82;100303.94;10372791;28;20072;-84
2023/03/19 12:04:11;;;;;;;770.20;552.08;;;;;;;15.73;81.18;100284.59;10374266;28;20600;-84
2023/03/19 12:09:17;;;;;;;;;;;;;;;16.05;81.43;100305.44;10374510;28;20486;-88
2023/03/19 12:14:24;;;;;;;1024.32;652.03;;;;;;;15.97;80.56;100301.09;10373032;28;19917;-85
2023/03/19 12:19:54;;;;;;;472.27;266.45;;;;;;;15.91;82.46;100281.31;10374121;28;20038;-86
2023/03/19 12:25:16;;;;;;;886.60;431.27;;;;;;;15.94;82.44;100294.31;10406192;28;20467;-85
2023/03/19 12:31:14;;;;;;;1054.28;649.45;;;;;;;15.89;81.20;100271.84;10400074;28;20037;-86
2023/03/19 12:36:24;;;;;;;428.90;246.95;;;;;;;15.84;81.48;100260.91;10403440;28;20049;-86
2023/03/19 12:41:28;;;;;;;538.25;290.13;;;;;;;15.84;81.78;100260.91;10389405;28;20045;-87
2023/03/19 12:46:35;;;;;;;441.23;232.32;;;;;;;15.75;81.12;100236.16;10414695;28;20033;-88
2023/03/19 12:51:41;;;;;;;426.92;331.58;;;;;;;15.74;80.47;100232.66;10416803;28;20045;-86
2023/03/19 12:56:58;;;;;;;75.97;38.60;;;;;;;16.07;79.09;100268.56;10415785;28;20044;-83
2023/03/19 13:02:10;;;;;;;73.22;25.95;;;;;;;15.05;79.03;100104.47;10412306;28;20041;-89
2023/03/19 13:07:21;;;;;;;53.55;15.23;;;;;;;15.91;79.87;100238.47;10412511;28;20041;-80
2023/03/19 13:12:26;;;;;;;63.50;15.38;;;;;;;15.95;79.29;100234.31;10417515;28;20045;-83
2023/03/19 13:17:54;;;;;;;52.47;14.43;;;;;;;16.17;78.43;100251.00;10420041;28;20113;-83
2023/03/19 13:23:00;;;;;;;130.02;37.28;;;;;;;16.18;78.06;100241.97;10410430;28;20115;-81
2023/03/19 13:28:08;;;;;;;156.30;41.00;;;;;;;16.23;77.98;100235.97;10419727;28;20050;-81
2023/03/19 13:33:17;;;;;;;130.02;39.55;;;;;;;16.05;79.20;100199.06;10419188;28;20144;-80
2023/03/19 13:38:26;;;;;;;37.50;12.23;;;;;;;16.37;78.75;100242.97;10419901;28;20064;-81
2023/03/19 13:43:27;;;;;;;42.42;9.82;;;;;;;16.31;79.31;100238.44;10395561;28;20048;-80
2023/03/19 13:48:28;;;;;;;145.30;101.65;;;;;;;16.29;78.90;100234.31;10378573;28;20412;-80
2023/03/19 13:53:35;;;;;;;45.70;12.57;;;;;;;16.23;78.01;100230.59;10378496;28;20145;-81
2023/03/19 13:58:51;;;;;;;44.38;10.40;;;;;;;15.84;77.54;100159.94;10378176;28;20041;-81
2023/03/19 14:04:01;;;;;;;42.97;11.02;;;;;;;15.85;77.50;100169.59;10378104;28;20128;-81
2023/03/19 14:09:04;;;;;;;40.10;10.70;;;;;;;15.52;78.42;100124.06;10377515;28;20188;-80
2023/03/19 14:14:12;;;;;;;33.05;7.28;;;;;;;16.01;79.09;100218.47;10377925;28;20556;-81
2023/03/19 14:19:18;;;;;;;33.15;7.13;;;;;;;15.73;78.82;100173.94;10378249;28;20033;-81
2023/03/19 14:24:26;;;;;;;35.47;7.63;;;;;;;15.95;79.68;100220.94;10376840;28;20038;-80
2023/03/19 14:29:29;;;;;;;46.17;9.48;;;;;;;15.78;80.47;100192.91;10376435;28;20080;-80
2023/03/19 14:34:35;;;;;;;49.42;9.98;;;;;;;15.35;80.42;100133.53;10376876;28;20058;-80
2023/03/19 14:39:43;;;;;;;42.40;10.00;;;;;;;15.81;80.66;100227.31;10376198;28;20048;-79
2023/03/19 14:45:12;;;;;;;41.90;9.30;;;;;;;15.77;81.30;100219.91;10384857;28;20041;-80
2023/03/19 14:50:36;;;;;;;50.10;13.75;;;;;;;15.63;82.17;100222.53;10401157;28;20073;-82
2023/03/19 14:55:37;;;;;;;49.63;12.20;;;;;;;15.24;82.81;100183.94;10387254;28;20049;-82
2023/03/19 15:00:46;;;;;;;56.00;13.63;;;;;;;15.38;83.61;100224.13;10383029;28;20042;-82
2023/03/19 15:05:51;;;;;;;55.88;12.15;;;;;;;15.24;84.05;100220.59;10393268;28;20045;-80
2023/03/19 15:10:55;;;;;;;57.63;15.85;;;;;;;14.74;84.91;100156.63;10386597;28;20548;-82
2023/03/19 15:16:24;;;;;;;97.70;39.50;;;;;;;15.15;85.20;100219.13;10397776;28;20417;-81
2023/03/19 15:21:25;;;;;;;93.90;30.63;;;;;;;14.91;86.11;100229.31;10392965;28;20048;-80
2023/03/19 15:26:36;;;;;;;98.68;42.15;;;;;;;14.82;88.48;100234.00;10400102;28;20038;-81
2023/03/19 15:31:45;;;;;;;65.70;17.60;;;;;;;14.69;89.16;100230.41;10397116;28;20077;-81
2023/03/19 15:36:49;;;;;;;58.38;16.40;;;;;;;14.38;88.99;100211.09;10386858;28;20050;-81
2023/03/19 15:41:51;;;;;;;70.50;13.57;;;;;;;14.09;89.19;100172.09;10380903;28;20073;-82
2023/03/19 15:46:54;;;;;;;67.78;13.25;;;;;;;14.16;90.61;100190.81;10384668;28;20083;-81
2023/03/19 15:52:00;;;;;;;63.20;11.30;;;;;;;14.35;91.72;100221.34;10374544;28;20490;-82
2023/03/19 15:57:01;;;;;;;89.45;27.35;;;;;;;14.32;91.33;100222.56;10373332;28;20046;-82
2023/03/19 16:02:21;;;;;;;103.63;35.83;;;;;;;14.28;93.75;100225.84;10391102;28;20045;-81
2023/03/19 16:07:26;;;;;;;184.65;73.40;;;;;;;14.12;92.50;100209.09;10372935;28;20042;-80
2023/03/19 16:12:39;;;;;;;169.52;66.78;;;;;;;14.14;94.40;100223.06;10372582;28;20041;-81
2023/03/19 16:17:39;;;;;;;152.50;63.33;;;;;;;13.65;92.55;100156.34;10373080;28;20045;-81
2023/03/19 16:22:42;;;;;;;159.82;60.25;;;;;;;13.82;93.03;100188.91;10372540;28;20073;-81
2023/03/19 16:27:43;;;;;;;212.35;84.05;;;;;;;13.66;93.48;100184.66;10372971;28;20132;-81
2023/03/19 16:32:44;;;;;;;144.75;53.03;;;;;;;13.70;93.79;100188.63;10372539;28;20495;-81
2023/03/19 16:37:47;;;;;;;156.52;62.72;;;;;;;13.91;94.01;100223.31;10372565;28;20095;-82
2023/03/19 16:42:54;;;;;;;157.20;58.97;;;;;;;13.00;96.23;100081.63;10375449;28;20545;-89
2023/03/19 16:48:04;;;;;;;112.28;37.38;;;;;;;13.77;96.63;100210.84;10400706;28;20046;-87
2023/03/19 16:53:31;;;;;;;136.57;50.25;;;;;;;13.58;99.11;100193.66;10386372;28;20038;-86
2023/03/19 16:58:47;;;;;;;109.22;41.70;;;;;;;13.14;99.05;100141.25;10379682;28;20041;-87
2023/03/19 17:03:49;;;;;;;112.53;46.72;;;;;;;13.21;97.71;100158.16;10376103;28;20053;-88
2023/03/19 17:08:49;;;;;;;107.50;45.17;;;;;;;13.09;97.73;100133.00;10386053;28;20524;-88
2023/03/19 17:13:52;;;;;;;130.95;53.17;;;;;;;12.96;97.36;100114.19;10392618;28;20053;-86
2023/03/19 17:18:54;;;;;;;154.20;59.67;;;;;;;12.99;97.60;100156.50;10374627;28;20509;-88
2023/03/19 17:23:54;;;;;;;149.55;58.17;;;;;;;12.72;98.06;100176.69;10374170;28;20068;-89
2023/03/19 17:28:55;;;;;;;97.18;39.17;;;;;;;12.77;98.72;100201.75;10375245;28;20045;-88
2023/03/19 17:34:04;;;;;;;87.07;26.23;;;;;;;12.70;99.74;100190.16;10374671;28;20441;-87
2023/03/19 17:39:06;;;;;;;54.55;13.82;;;;;;;12.78;96.60;100190.06;10374116;28;20046;-89
2023/03/19 17:44:07;;;;;;;49.90;10.35;;;;;;;12.97;92.58;100190.50;10373332;28;20092;-88
2023/03/19 17:49:31;;;;;;;38.15;8.98;;;;;;;12.76;89.86;100176.09;10372438;28;20038;-88
2023/03/19 17:54:32;;;;;;;37.35;7.18;;;;;;;12.20;90.56;100122.50;10373868;28;20486;-88
2023/03/19 17:59:33;;;;;;;33.92;6.05;;;;;;;12.20;89.13;100178.41;10378725;28;20045;-88
2023/03/19 18:04:33;;;;;;;39.63;7.00;;;;;;;11.56;86.57;100112.31;10380904;28;20049;-87
2023/03/19 18:09:34;;;;;;;37.88;6.82;;;;;;;11.91;85.32;100199.69;10380120;28;20401;-87
2023/03/19 18:14:35;;;;;;;40.65;6.10;;;;;;;11.47;84.02;100155.13;10379687;28;20038;-87
2023/03/19 18:19:37;;;;;;;51.05;7.90;;;;;;;11.61;82.90;100204.91;10379612;28;20049;-87
2023/03/19 18:24:38;;;;;;;49.83;7.05;;;;;;;11.24;82.53;100161.25;10379108;28;20401;-88
2023/03/19 18:29:39;;;;;;;39.17;6.53;;;;;;;11.30;81.85;100189.78;10378583;28;20046;-85
2023/03/19 18:34:40;;;;;;;48.35;7.47;;;;;;;10.99;81.11;100162.44;10377037;28;20064;-86
2023/03/19 18:39:41;;;;;;;46.92;6.60;;;;;;;10.52;80.86;100109.19;10377078;28;20489;-85
2023/03/19 18:44:42;;;;;;;37.75;6.50;;;;;;;10.99;80.94;100204.97;10376617;28;20045;-85
2023/03/19 18:49:43;;;;;;;44.00;7.82;;;;;;;10.12;80.37;100080.94;10377554;28;20049;-85
2023/03/19 18:54:44;;;;;;;41.58;6.75;;;;;;;10.51;80.68;100149.22;10376521;28;20042;-83
2023/03/19 18:59:45;;;;;;;34.17;6.60;;;;;;;10.19;79.82;100118.25;10375594;28;20531;-83
2023/03/19 19:04:46;;;;;;;41.55;6.45;;;;;;;10.40;80.55;100161.00;10376302;28;20552;-85
2023/03/19 19:09:47;;;;;;;37.17;6.38;;;;;;;10.40;80.66;100186.75;10375809;28;20113;-87
2023/03/19 19:14:48;;;;;;;43.15;7.05;;;;;;;10.08;81.00;100151.31;10374680;28;20067;-84
2023/03/19 19:19:49;;;;;;;45.00;7.80;;;;;;;9.87;81.14;100143.88;10375983;28;20375;-83
2023/03/19 19:24:50;;;;;;;42.55;7.07;;;;;;;10.03;81.42;100178.34;10375718;28;20088;-84
2023/03/19 19:29:52;;;;;;;38.03;6.70;;;;;;;9.53;81.50;100106.94;10407445;28;20490;-86
2023/03/19 19:34:53;;;;;;;35.60;6.82;;;;;;;10.02;81.29;100208.53;10406858;28;20109;-87
2023/03/19 19:39:54;;;;;;;44.08;7.57;;;;;;;9.75;81.32;100167.28;10385589;28;20046;-80
2023/03/19 19:45:00;;;;;;;41.70;7.03;;;;;;;9.34;81.42;100116.91;10373665;28;20045;-83
2023/03/19 19:50:00;;;;;;;52.60;7.60;;;;;;;9.49;81.67;100164.78;10382034;28;20045;-82
2023/03/19 19:55:01;;;;;;;39.42;7.15;;;;;;;9.52;81.24;100161.81;10376848;28;20053;-83
2023/03/19 20:00:03;;;;;;;35.42;7.45;;;;;;;9.43;81.66;100154.84;10373144;28;20049;-82
2023/03/19 20:05:04;;;;;;;29.85;6.40;;;;;;;9.06;81.51;100102.28;10373278;28;20065;-83
2023/03/19 20:10:05;;;;;;;40.58;7.35;;;;;;;9.51;81.21;100184.03;10374008;28;20393;-83
2023/03/19 20:15:28;;;;;;;40.78;7.13;;;;;;;9.38;80.62;100173.06;10373846;28;20479;-82
2023/03/19 20:20:31;;;;;;;46.92;7.25;;;;;;;8.85;81.66;100106.22;10371429;28;20037;-81
2023/03/19 20:25:32;;;;;;;35.30;6.75;;;;;;;9.15;81.57;100159.59;10373517;28;20042;-84
2023/03/19 20:30:40;;;;;;;35.20;7.03;;;;;;;9.19;81.71;100176.03;10372339;28;20050;-84
2023/03/19 20:35:41;;;;;;;34.58;6.93;;;;;;;8.70;82.25;100115.78;10404134;28;20119;-84
2023/03/19 20:40:43;;;;;;;38.92;8.30;;;;;;;9.11;81.65;100180.31;10372218;28;20502;-82
2023/03/19 20:45:44;;;;;;;53.70;21.90;;;;;;;8.62;81.62;100100.72;10373463;28;20487;-82
2023/03/19 20:50:46;;;;;;;44.00;7.85;;;;;;;8.32;81.47;100061.56;10372539;28;20482;-84
2023/03/19 20:55:48;;;;;;;34.17;6.90;;;;;;;8.74;81.92;100171.94;10372457;28;20057;-84
2023/03/19 21:00:49;;;;;;;48.72;6.35;;;;;;;8.57;82.11;100168.38;10372444;28;20042;-84
2023/03/19 21:05:54;;;;;;;35.67;6.10;;;;;;;8.59;82.71;100177.00;10372347;28;20096;-84
2023/03/19 21:10:55;;;;;;;32.55;6.25;;;;;;;8.00;82.72;100090.34;10371280;28;20532;-84
2023/03/19 21:15:55;;;;;;;34.20;6.40;;;;;;;8.15;82.59;100122.34;10371263;28;20060;-85
2023/03/19 21:20:57;;;;;;;41.40;6.15;;;;;;;7.73;82.70;100075.47;10371332;28;20417;-84
2023/03/19 21:26:03;;;;;;;39.90;6.68;;;;;;;8.10;83.15;100140.50;10372370;28;20100;-85
2023/03/19 21:31:05;;;;;;;38.70;6.75;;;;;;;7.41;82.66;100038.28;10371353;28;20505;-84
2023/03/19 21:36:07;;;;;;;37.08;6.97;;;;;;;8.21;83.08;100185.22;10378278;28;20112;-84
2023/03/19 21:41:16;;;;;;;49.28;6.13;;;;;;;7.97;83.17;100156.78;10379112;28;20041;-84
2023/03/19 21:46:22;;;;;;;43.15;5.97;;;;;;;7.85;83.34;100149.28;10378368;28;20045;-84
2023/03/19 21:51:24;;;;;;;37.72;5.70;;;;;;;7.59;83.86;100117.53;10378710;28;20042;-81
2023/03/19 21:56:32;;;;;;;37.58;6.57;;;;;;;7.89;83.85;100159.38;10384395;28;20086;-83
2023/03/19 22:01:33;;;;;;;47.72;8.98;;;;;;;8.00;83.51;100175.00;10418759;28;20042;-82
2023/03/19 22:06:33;;;;;;;35.72;7.28;;;;;;;7.87;83.55;100157.91;10382490;28;20049;-82
2023/03/19 22:11:37;;;;;;;40.10;9.75;;;;;;;7.91;83.44;100178.56;10415244;28;20392;-82
2023/03/19 22:16:38;;;;;;;44.72;6.85;;;;;;;7.18;83.82;100072.28;10414726;28;20038;-82
2023/03/19 22:21:39;;;;;;;35.08;5.82;;;;;;;7.64;84.38;100161.03;10409072;28;20077;-82
2023/03/19 22:26:42;;;;;;;48.33;8.30;;;;;;;7.27;83.99;100090.69;10384692;28;20070;-83
2023/03/19 22:31:43;;;;;;;46.95;6.95;;;;;;;7.21;83.90;100090.47;10375891;28;20125;-82
2023/03/19 22:36:44;;;;;;;29.48;5.78;;;;;;;7.41;84.05;100141.34;10415567;28;20513;-82
2023/03/19 22:41:47;;;;;;;50.10;7.10;;;;;;;7.31;84.46;100150.19;10417065;28;20463;-82
2023/03/19 22:46:47;;;;;;;41.70;6.75;;;;;;;6.91;84.90;100111.00;10416988;28;20084;-82
2023/03/19 22:51:48;;;;;;;24.88;4.80;;;;;;;6.77;85.54;100106.25;10433573;28;20073;-81